• Join FlightAware (Why Join?)
  • Login
  • US Flag 
02:12AM EDT


 

Airport Tracker/Info


-or-


 

Live Flight TrackerFlight Track Log ✈ AXM5241 ✈ 01-Jul-2013 ✈ WBGB / BTU - WMKK / KUL

Flight Track Log - Related Links

Times and Time Zones

All times are in EDT time to prevent confusion due to time zone crossing. See the AXM5241 flight status page for this flight to view local times or setup timezone preferences in your user account.

Time Position Orientation Groundspeed Altitude Reporting Facility
EDT Latitude Longitude Course Direction KTS MPH feet Rate Location/Type
04:18AM 2.8290 111.4000 264° West 488 562 31,900  Level FlightAware
04:19AM 2.8210 111.3260 264° West 488 562 31,900 1,140 Level FlightAware
04:19AM 2.8090 111.2060 264° West 493 567 33,600 1,320 Climbing FlightAware
04:20AM 2.8010 111.1240 264° West 494 568 33,900 120 Climbing FlightAware
04:21AM 2.7880 111.0080 264° West 494 568 33,900 1,320 Level FlightAware
04:22AM 2.7780 110.8940 265° West 502 578 36,100 2,460 Climbing FlightAware
04:22AM 2.7670 110.7850 264° West 495 570 37,300 1,260 Climbing FlightAware
04:23AM 2.7570 110.6900 264° West 487 560 38,000 480 Climbing FlightAware
04:24AM 2.7480 110.6000 264° West 477 549 38,000  Level FlightAware
04:25AM 2.7390 110.5050 265° West 480 552 38,000  Level FlightAware
04:25AM 2.7280 110.4130 263° West 483 556 38,000  Level FlightAware
04:26AM 2.7080 110.3170 258° West 485 558 38,000  Level FlightAware
04:27AM 2.6810 110.1930 258° West 485 558 38,000  Level FlightAware
04:28AM 2.6620 110.1070 258° West 484 557 38,000  Level FlightAware
04:28AM 2.6420 110.0210 257° West 484 557 38,000  Level FlightAware
04:29AM 2.6210 109.9220 258° West 483 556 38,000  Level FlightAware
04:30AM 2.5930 109.7980 257° West 481 554 38,000  Level FlightAware
04:31AM 2.5700 109.6920 258° West 478 550 38,000  Level FlightAware
04:31AM 2.5500 109.6010 258° West 478 550 38,000  Level FlightAware
04:32AM 2.5290 109.5060 258° West 477 549 38,000  Level FlightAware
04:33AM 2.5110 109.4240 258° West 476 548 38,000  Level FlightAware
04:34AM 2.4880 109.3210 257° West 474 545 38,000  Level FlightAware
04:34AM 2.4700 109.2380 258° West 472 543 38,000  Level FlightAware
04:35AM 2.4500 109.1470 258° West 473 544 38,000  Level FlightAware
04:36AM 2.4310 109.0620 257° West 474 545 38,000  Level FlightAware
04:36AM 2.4120 108.9760 258° West 476 548 38,000  Level FlightAware
04:37AM 2.3890 108.8750 257° West 478 550 38,000  Level FlightAware
04:38AM 2.3700 108.7850 258° West 482 555 38,000  Level FlightAware
04:38AM 2.3500 108.6980 257° West 484 557 38,000  Level FlightAware
04:39AM 2.3290 108.6020 258° West 486 559 38,000  Level FlightAware
04:40AM 2.3070 108.5050 257° West 486 559 38,000  Level FlightAware
04:41AM 2.2880 108.4170 258° West 485 558 38,000 60 Level FlightAware
04:41AM 2.2670 108.3220 258° West 483 556 38,100 60 Climbing FlightAware
04:42AM 2.2470 108.2340 257° West 477 549 38,100 -120 Level FlightAware
04:43AM 2.2300 108.1550 258° West 474 545 38,000 -120 Descending FlightAware
04:43AM 2.2130 108.0820 257° West 474 545 38,000  Level FlightAware
04:44AM 2.1930 107.9950 257° West 474 545 38,000  Level FlightAware
04:45AM 2.1720 107.8770 260° West 468 539 38,000  Level FlightAware
04:45AM 2.1810 107.7860 276° West 467 537 38,000  Level FlightAware
04:46AM 2.1940 107.7080 279° West 466 536 38,000  Level FlightAware
04:47AM 2.2040 107.6410 278° West 466 536 38,000  Level FlightAware
04:48AM 2.2180 107.5540 279° West 466 536 38,000  Level FlightAware
04:48AM 2.2710 107.4500 297° West 467 537 38,000  Level FlightAware
04:49AM 2.2940 107.3630 285° West 467 537 38,000  Level FlightAware
04:50AM 2.3250 107.2570 286° West 467 537 38,000  Level FlightAware
04:50AM 2.3470 107.1760 285° West 469 540 38,000  Level FlightAware
04:51AM 2.3680 107.0980 285° West 470 541 38,000  Level FlightAware
04:52AM 2.3910 107.0120 285° West 470 541 38,000  Level FlightAware
04:52AM 2.4080 106.9480 285° West 470 541 38,000  Level FlightAware
04:53AM 2.4370 106.8410 285° West 470 541 38,000  Level FlightAware
04:54AM 2.4780 106.7020 286° West 470 541 38,000  Level FlightAware
04:55AM 2.5020 106.6170 286° West 471 542 38,000  Level FlightAware
04:55AM 2.5260 106.5290 285° West 474 545 38,000  Level FlightAware
04:56AM 2.5470 106.4500 285° West 475 547 38,000  Level FlightAware
04:57AM 2.5650 106.3830 285° West 475 547 38,000  Level FlightAware
04:58AM 2.5880 106.2960 285° West 475 547 38,000  Level FlightAware
04:58AM 2.6260 106.1660 286° West 480 552 38,000  Level FlightAware
04:59AM 2.6500 106.0800 286° West 478 550 38,000  Level FlightAware
05:01AM 2.7030 105.8870 285° West 477 549 38,000  Level FlightAware
05:01AM 2.7360 105.7700 286° West 457 526 38,000  Level FlightAware
05:02AM 2.7590 105.6840 285° West 462 532 38,000  Level FlightAware
05:03AM 2.7800 105.6080 285° West 465 535 38,000  Level FlightAware
05:04AM 2.8090 105.5050 286° West 468 539 38,000  Level FlightAware
05:04AM 2.8320 105.4220 286° West 474 545 38,000  Level FlightAware
05:05AM 2.8520 105.3490 285° West 477 549 38,000  Level FlightAware
05:06AM 2.8890 105.2140 285° West 472 543 38,000 -300 Level FlightAware
05:07AM 2.9180 105.1090 285° West 469 540 37,500 -300 Descending FlightAware
05:08AM 2.9480 104.9980 285° West 469 540 37,500  Level FlightAware
05:08AM 2.9650 104.9320 284° West 469 540 37,500 -1,380 Level FlightAware
05:09AM 2.9950 104.8290 286° West 462 532 35,800 -1,620 Descending FlightAware
05:10AM 3.0220 104.7290 285° West 455 524 35,100 -1,320 Descending FlightAware
05:10AM 3.0450 104.6480 286° West 439 505 34,000 -720 Descending FlightAware
05:11AM 3.0790 104.5260 286° West 444 511 34,000  Level FlightAware
05:12AM 3.1010 104.4460 285° West 445 512 34,000  Level FlightAware
05:13AM 3.1150 104.3920 285° West 445 512 34,000  Level FlightAware
05:13AM 3.1370 104.3150 286° West 445 512 34,000  Level FlightAware
05:14AM 3.1570 104.2420 285° West 446 513 34,000  Level FlightAware
05:14AM 3.1700 104.1770 281° West 446 513 34,000  Level FlightAware
05:16AM 3.1750 104.0510 272° West 446 513 34,000  Level FlightAware
05:17AM 3.1690 103.9100 268° West 445 512 34,000  Level FlightAware
05:17AM 3.1660 103.8160 268° West 446 513 34,000  Level FlightAware
05:18AM 3.1630 103.7580 267° West 446 513 34,000  Level FlightAware
05:19AM 3.1590 103.6430 268° West 446 513 34,000  Level FlightAware
05:20AM 3.1560 103.5640 268° West 444 511 34,000  Level FlightAware
05:20AM 3.1430 103.4380 264° West 442 509 34,000  Level FlightAware
05:21AM 3.1330 103.3600 263° West 441 507 34,000  Level FlightAware
05:22AM 3.1190 103.2570 262° West 440 506 34,000  Level FlightAware
05:22AM 3.1090 103.1840 262° West 441 507 34,000 -120 Level FlightAware
05:23AM 3.1000 103.1120 263° West 439 505 33,900 -1,200 Descending FlightAware
05:24AM 3.0900 103.0400 262° West 435 501 32,600 -2,520 Descending FlightAware
05:24AM 3.0800 102.9690 262° West 436 502 30,800 -2,520 Descending FlightAware
05:25AM 3.0690 102.8840 263° West 434 499 29,300 -2,280 Descending FlightAware
05:25AM 3.0610 102.8220 263° West 430 495 28,200 -1,140 Descending FlightAware
05:26AM 3.0510 102.7500 262° West 410 472 28,000 -180 Descending FlightAware
05:27AM 3.0410 102.6770 262° West 359 413 28,000 -120 Level FlightAware
05:27AM 3.0350 102.6300 263° West 335 386 27,900 -780 Descending FlightAware
05:28AM 3.0240 102.5510 262° West 318 366 26,900 -1,200 Descending FlightAware
05:29AM 3.0160 102.4910 262° West 310 357 26,000 -1,440 Descending FlightAware
05:30AM 2.9620 102.4390 224° Southwest 294 338 24,400 -1,380 Descending FlightAware
05:31AM 2.9200 102.4690 144° Southeast 290 334 23,500 -1,320 Descending FlightAware
05:31AM 2.9160 102.4850 104° East 288 331 23,200 -1,560 Descending FlightAware
05:32AM 2.9230 102.5450 83° East 278 320 22,200 -1,440 Descending FlightAware
05:32AM 2.9310 102.6060 83° East 274 315 21,200 -1,380 Descending FlightAware
05:33AM 2.9370 102.6480 82° East 271 312 20,400 -1,200 Descending FlightAware
05:34AM 2.9660 102.7040 63° Northeast 269 310 19,400 -1,140 Descending FlightAware
05:34AM 3.0170 102.7010 357° North 259 298 18,600 -1,140 Descending FlightAware
05:35AM 3.0360 102.6770 308° West 251 289 18,100 -1,200 Descending FlightAware
05:35AM 3.0390 102.6540 277° West 254 292 17,600 -1,320 Descending FlightAware
05:36AM 3.0330 102.6060 263° West 252 290 16,800 -1,140 Descending FlightAware
05:37AM 3.0230 102.5410 261° West 250 288 15,800 -960 Descending FlightAware
05:38AM 3.0140 102.4770 262° West 252 290 15,000 -600 Descending FlightAware
05:38AM 2.9970 102.4520 236° Southwest 299 344 15,000  Level FlightAware
05:39AM 2.9550 102.4210 216° Southwest 325 374 15,000  Level FlightAware
05:40AM 2.8980 102.3610 226° Southwest 327 376 15,000 -180 Level FlightAware
05:40AM 2.8560 102.3170 226° Southwest 316 364 14,800 -540 Descending FlightAware
05:41AM 2.8180 102.2780 226° Southwest 297 342 14,300 -1,140 Descending FlightAware
05:42AM 2.7670 102.2260 226° Southwest 290 334 13,000 -1,200 Descending FlightAware
05:43AM 2.7210 102.1780 226° Southwest 268 308 12,300 -780 Descending FlightAware
05:43AM 2.6970 102.1530 226° Southwest 258 297 12,000 -900 Descending FlightAware
05:44AM 2.6600 102.1110 229° Southwest 254 292 11,100 -1,200 Descending FlightAware
05:45AM 2.6210 102.0750 223° Southwest 251 289 10,200 -1,200 Descending FlightAware
05:45AM 2.6010 102.0560 224° Southwest 249 287 9,700 -1,140 Descending FlightAware
05:46AM 2.5810 102.0370 224° Southwest 248 285 9,200 -1,260 Descending FlightAware
05:46AM 2.5640 102.0210 223° Southwest 243 280 8,800 -600 Descending FlightAware
05:47AM 2.5400 101.9990 222° Southwest 242 278 8,700 -120 Descending FlightAware
05:47AM 2.5220 101.9830 222° Southwest 242 278 8,700 -1,380 Level FlightAware
05:47AM 2.5020 101.9670 219° Southwest 213 245 7,700 -1,440 Descending FlightAware
05:49AM 2.4860 101.8840 259° West 204 235 5,800 -1,200 Descending FlightAware
05:50AM 2.5020 101.8620 306° West 192 221 5,100 -1,380 Descending FlightAware
05:50AM 2.5180 101.8490 321° Northwest 196 226 4,600 -1,200 Descending FlightAware
05:50AM 2.5320 101.8390 324° Northwest 191 220 4,300 -900 Descending FlightAware
05:51AM 2.5530 101.8250 326° Northwest 180 207 3,900 -960 Descending FlightAware
05:51AM 2.5740 101.8120 328° Northwest 182 209 3,400 -1,020 Descending FlightAware
05:52AM 2.5980 101.7950 325° Northwest 170 196 2,800 -960 Descending FlightAware
05:52AM 2.6180 101.7820 327° Northwest 161 185 2,400 -840 Descending FlightAware
05:53AM 2.6280 101.7750 325° Northwest 146 168 2,200 -780 Descending FlightAware
05:53AM 2.6400 101.7680 330° Northwest 135 155 1,900 -780 Descending FlightAware
05:53AM 2.6490 101.7620 326° Northwest 125 144 1,700 -360 Descending FlightAware
05:54AM 2.6700 101.7470 324° Northwest 124 143 1,500 -300 Descending FlightAware
05:57AM 2.7456 101.7099 334° Northwest  Level Estimated
05:58AM 2.7456 101.7099 236° Southwest  Level Estimated
05:59AM 2.7456 101.7099 236° Southwest  Level Estimated
06:00AM 2.7456 101.7099 236° Southwest  Level Estimated
06:01AM 2.7456 101.7099 236° Southwest  Level Estimated
06:02AM 2.7456 101.7099 236° Southwest  Level Estimated